Terminal Aerodrome Forecast
Issued by NWS Kansas City/Pleasant Hill, MO

Home | Current Version | Previous Version | Text Only | Print | Product List | Glossary On
Versions: 1 2 3 4 5 6 7 8 9 10 11 12 13 14 15 16 17 18 19 20 21
000
FTUS43 KEAX 281000 AAA
TAFMCI
TAF AMD
KMCI 281032Z 2811/2906 13009KT P6SM VCTS SCT045CB SCT070 BKN150
      TEMPO 2812/2815 19008KT 6SM -TSRA BR BKN030CB
     FM281600 15011KT P6SM SCT035 BKN180
     FM282100 18013KT P6SM VCTS BKN035CB
      TEMPO 2823/2903 19008KT 6SM -TSRA BR BKN030CB=

USA.gov is the U.S. government's official web portal to all federal, state and local government web resources and services.